createdAt,value
2023-03-04T00:00:08.845Z,73.40
2023-03-04T00:02:44.657Z,65.40
2023-03-04T00:05:13.119Z,70.50
2023-03-04T00:07:41.278Z,69.40
2023-03-04T00:10:15.323Z,70.20
2023-03-04T00:12:45.645Z,70.70
2023-03-04T00:15:13.929Z,70.10
2023-03-04T00:17:42.219Z,71.80
2023-03-04T00:20:11.428Z,89.90
2023-03-04T00:22:39.617Z,91.40
2023-03-04T00:25:08.643Z,81.30
2023-03-04T00:27:37.627Z,85.30
2023-03-04T00:30:07.068Z,79.40
2023-03-04T00:32:35.961Z,77.60
2023-03-04T00:35:06.813Z,77.00
2023-03-04T00:37:38.667Z,75.50
2023-03-04T00:40:07.573Z,78.50
2023-03-04T00:42:36.990Z,78.00
2023-03-04T00:45:05.997Z,83.10
2023-03-04T00:47:34.077Z,81.80
2023-03-04T00:50:02.562Z,78.60
2023-03-04T00:52:31.584Z,80.20
2023-03-04T00:55:00.150Z,81.30
2023-03-04T00:57:28.940Z,77.70
2023-03-04T00:59:57.331Z,81.20
2023-03-04T01:02:26.264Z,79.30
2023-03-04T01:04:55.674Z,76.20
2023-03-04T01:07:24.738Z,76.40
2023-03-04T01:09:53.566Z,83.20
2023-03-04T01:12:22.862Z,85.30
2023-03-04T01:14:51.344Z,82.70
2023-03-04T01:17:26.278Z,83.90
2023-03-04T01:19:54.377Z,85.10
2023-03-04T01:29:55.719Z,83.60
2023-03-04T01:32:24.703Z,85.80
2023-03-04T01:34:52.894Z,84.10
2023-03-04T01:37:21.906Z,83.00
2023-03-04T01:39:50.301Z,86.20
2023-03-04T01:42:20.836Z,80.60
2023-03-04T01:44:49.119Z,83.30
2023-03-04T01:47:19.153Z,78.60
2023-03-04T01:49:54.132Z,84.60
2023-03-04T01:52:22.392Z,78.20
2023-03-04T01:54:52.162Z,78.30
2023-03-04T01:57:22.434Z,78.80
2023-03-04T02:00:31.082Z,78.70
2023-03-04T02:03:07.982Z,82.40
2023-03-04T02:05:45.479Z,83.50
2023-03-04T02:08:13.645Z,85.50
2023-03-04T02:10:44.912Z,77.30
2023-03-04T02:13:13.081Z,79.10
2023-03-04T02:15:42.290Z,79.60
2023-03-04T02:18:20.876Z,80.00
2023-03-04T02:20:52.413Z,83.10
2023-03-04T02:23:38.280Z,84.70
2023-03-04T02:26:17.898Z,78.70
2023-03-04T02:28:46.885Z,73.80
2023-03-04T02:31:24.675Z,76.40
2023-03-04T02:33:53.627Z,83.20
2023-03-04T02:36:22.060Z,85.30
2023-03-04T02:38:51.828Z,82.40
2023-03-04T02:41:25.654Z,91.00
2023-03-04T02:43:57.952Z,83.80
2023-03-04T02:46:26.458Z,86.10
2023-03-04T02:48:55.272Z,87.10
2023-03-04T02:51:23.934Z,84.70
2023-03-04T02:53:52.121Z,77.20
2023-03-04T02:56:20.607Z,79.30
2023-03-04T02:58:48.993Z,79.50
2023-03-04T03:01:19.726Z,76.90
2023-03-04T03:03:48.263Z,86.40
2023-03-04T03:06:17.318Z,82.20
2023-03-04T03:08:50.019Z,88.70
2023-03-04T03:11:18.962Z,81.60
2023-03-04T03:13:47.246Z,84.60
2023-03-04T03:16:19.658Z,84.20
2023-03-04T03:18:48.718Z,81.20
2023-03-04T03:21:17.202Z,90.10
2023-03-04T03:23:46.093Z,117.30
2023-03-04T03:26:14.681Z,97.70
2023-03-04T03:28:42.862Z,87.70
2023-03-04T03:31:11.306Z,89.50
2023-03-04T03:33:44.786Z,86.20
2023-03-04T03:36:13.549Z,86.70
2023-03-04T03:38:41.646Z,80.20
2023-03-04T03:41:09.832Z,90.20
2023-03-04T03:43:38.116Z,84.40
2023-03-04T03:46:06.338Z,92.70
2023-03-04T03:48:34.675Z,96.90
2023-03-04T03:51:04.515Z,100.80
2023-03-04T03:53:32.683Z,98.00
2023-03-04T03:56:00.866Z,98.80
2023-03-04T03:58:29.850Z,99.90
2023-03-04T04:00:58.751Z,102.70
2023-03-04T04:03:27.155Z,100.20
2023-03-04T04:05:55.836Z,100.90
2023-03-04T04:08:25.992Z,91.50
2023-03-04T04:10:54.465Z,95.00
2023-03-04T04:13:22.847Z,95.10
2023-03-04T04:15:54.017Z,93.80
2023-03-04T04:18:24.155Z,83.80
2023-03-04T04:20:53.299Z,90.60
2023-03-04T04:23:22.698Z,89.40
2023-03-04T04:25:50.869Z,85.30
2023-03-04T04:28:19.132Z,87.30
2023-03-04T04:30:47.624Z,82.40
2023-03-04T04:33:22.578Z,79.70
2023-03-04T04:35:50.840Z,87.00
2023-03-04T04:38:19.079Z,83.90
2023-03-04T04:40:47.850Z,89.80
2023-03-04T04:43:16.215Z,84.20
2023-03-04T04:45:44.443Z,94.80
2023-03-04T04:48:12.800Z,100.20
2023-03-04T04:50:41.998Z,84.90
2023-03-04T04:53:12.748Z,94.90
2023-03-04T04:55:41.039Z,83.40
2023-03-04T04:58:09.747Z,102.20
2023-03-04T05:00:38.217Z,85.70
2023-03-04T05:03:08.447Z,92.10
2023-03-04T05:13:15.288Z,91.10
2023-03-04T05:15:43.528Z,92.80
2023-03-04T05:18:11.924Z,102.00
2023-03-04T05:20:40.405Z,111.80
2023-03-04T05:23:10.094Z,113.40
2023-03-04T05:25:38.360Z,121.70
2023-03-04T05:28:12.411Z,121.30
2023-03-04T05:30:41.337Z,101.40
2023-03-04T05:33:10.544Z,118.00
2023-03-04T05:35:39.784Z,103.70
2023-03-04T05:38:09.727Z,128.00
2023-03-04T05:40:38.959Z,126.90
2023-03-04T05:43:07.656Z,114.60
2023-03-04T05:45:37.310Z,108.80
2023-03-04T05:48:06.028Z,156.70
2023-03-04T05:50:34.540Z,148.20
2023-03-04T05:53:02.988Z,133.10
2023-03-04T05:55:31.275Z,133.20
2023-03-04T05:57:59.479Z,136.00
2023-03-04T06:00:27.771Z,130.20
2023-03-04T06:02:56.766Z,137.40
2023-03-04T06:05:30.777Z,122.70
2023-03-04T06:08:00.356Z,119.80
2023-03-04T06:10:28.859Z,116.80
2023-03-04T06:12:57.185Z,114.00
2023-03-04T06:15:26.889Z,113.30
2023-03-04T06:17:55.220Z,112.10
2023-03-04T06:20:24.338Z,103.70
2023-03-04T06:22:52.945Z,110.10
2023-03-04T06:25:21.227Z,94.70
2023-03-04T06:27:50.816Z,90.60
2023-03-04T06:30:19.562Z,91.50
2023-03-04T06:32:48.171Z,81.60
2023-03-04T06:35:17.677Z,83.00
2023-03-04T06:37:46.116Z,74.70
2023-03-04T06:43:25.668Z,72.50
2023-03-04T06:45:54.125Z,75.60
2023-03-04T06:48:23.292Z,73.90
2023-03-04T06:50:51.984Z,69.40
2023-03-04T06:53:20.196Z,72.30
2023-03-04T06:55:49.851Z,68.00
2023-03-04T06:58:18.715Z,70.40
2023-03-04T07:00:46.934Z,69.80
2023-03-04T07:03:17.423Z,80.00
2023-03-04T07:05:46.228Z,82.50
2023-03-04T07:08:16.708Z,83.80
2023-03-04T07:10:45.582Z,85.60
2023-03-04T07:13:14.443Z,80.90
2023-03-04T07:15:44.422Z,68.50
2023-03-04T07:18:12.900Z,61.50
2023-03-04T07:20:41.112Z,57.50
2023-03-04T07:23:09.660Z,64.40
2023-03-04T07:25:38.133Z,67.00
2023-03-04T07:28:06.477Z,69.90
2023-03-04T07:30:34.804Z,68.50
2023-03-04T07:33:03.099Z,64.00
2023-03-04T07:35:32.079Z,68.20
2023-03-04T07:38:00.863Z,69.40
2023-03-04T07:40:29.190Z,68.30
2023-03-04T07:42:57.748Z,71.70
2023-03-04T07:45:28.416Z,69.90
2023-03-04T07:47:58.449Z,73.90
2023-03-04T07:50:26.607Z,70.40
2023-03-04T07:53:48.135Z,86.10
2023-03-04T07:56:20.192Z,101.90
2023-03-04T07:58:48.859Z,118.40
2023-03-04T08:01:23.001Z,120.30
2023-03-04T08:03:52.774Z,113.40
2023-03-04T08:06:21.976Z,113.20
2023-03-04T08:08:58.923Z,123.80
2023-03-04T08:11:28.978Z,128.10
2023-03-04T08:13:58.124Z,113.60
2023-03-04T08:16:27.753Z,126.20
2023-03-04T08:18:58.620Z,104.80
2023-03-04T08:21:27.166Z,94.10
2023-03-04T08:23:59.780Z,79.80
2023-03-04T08:26:34.134Z,73.40
2023-03-04T08:29:02.964Z,85.80
2023-03-04T08:31:33.308Z,82.10
2023-03-04T08:34:03.831Z,73.70
2023-03-04T08:36:32.466Z,65.60
2023-03-04T08:39:00.542Z,85.40
2023-03-04T08:41:29.476Z,71.80
2023-03-04T08:43:58.710Z,78.40
2023-03-04T08:46:27.061Z,75.80
2023-03-04T08:48:59.231Z,66.50
2023-03-04T08:51:27.401Z,59.00
2023-03-04T08:53:55.588Z,53.60
2023-03-04T08:56:23.805Z,60.60
2023-03-04T08:58:51.890Z,57.10
2023-03-04T09:01:21.435Z,59.70
2023-03-04T09:03:49.820Z,60.20
2023-03-04T09:06:18.939Z,59.90
2023-03-04T09:08:47.124Z,61.50
2023-03-04T09:11:17.636Z,58.20
2023-03-04T09:13:46.010Z,52.90
2023-03-04T09:16:16.211Z,64.00
2023-03-04T09:18:44.615Z,59.70
2023-03-04T09:21:12.866Z,59.00
2023-03-04T09:23:45.262Z,55.80
2023-03-04T09:26:26.561Z,51.40
2023-03-04T09:28:57.156Z,48.80
2023-03-04T09:31:26.107Z,57.70
2023-03-04T09:33:54.530Z,45.10
2023-03-04T09:36:23.001Z,42.20
2023-03-04T09:38:59.592Z,36.60
2023-03-04T09:44:15.960Z,18.80
2023-03-04T09:46:45.860Z,20.30
2023-03-04T09:49:14.606Z,17.80
2023-03-04T09:51:52.032Z,18.20
2023-03-04T09:54:36.956Z,18.40
2023-03-04T09:57:52.829Z,24.50
2023-03-04T10:00:35.098Z,25.70
2023-03-04T10:03:13.302Z,19.80
2023-03-04T10:05:53.126Z,19.00
2023-03-04T10:08:28.365Z,17.90
2023-03-04T10:10:57.125Z,17.70
2023-03-04T10:13:37.059Z,17.40
2023-03-04T10:16:05.769Z,20.30
2023-03-04T10:18:38.818Z,21.10
2023-03-04T10:21:25.487Z,25.60
2023-03-04T10:23:54.522Z,19.00
2023-03-04T10:26:30.187Z,20.90
2023-03-04T10:28:58.242Z,20.40
2023-03-04T10:31:37.478Z,22.40
2023-03-04T10:34:06.064Z,21.10
2023-03-04T10:36:56.732Z,21.10
2023-03-04T10:39:34.036Z,20.10
2023-03-04T10:42:07.038Z,18.80
2023-03-04T10:44:35.688Z,20.00
2023-03-04T10:47:04.080Z,23.80
2023-03-04T10:49:33.808Z,21.00
2023-03-04T10:52:32.819Z,24.40
2023-03-04T10:55:06.110Z,26.50
2023-03-04T10:57:39.932Z,20.60
2023-03-04T11:00:17.761Z,22.20
2023-03-04T11:02:49.628Z,19.50
2023-03-04T11:05:22.736Z,22.10
2023-03-04T11:07:57.798Z,24.00
2023-03-04T11:10:29.363Z,23.70
2023-03-04T11:13:24.102Z,20.20
2023-03-04T11:18:43.846Z,23.40
2023-03-04T11:21:31.389Z,20.70
2023-03-04T11:24:00.693Z,19.60
2023-03-04T11:26:35.771Z,22.10
2023-03-04T11:29:18.833Z,20.00
2023-03-04T11:31:50.552Z,20.90
2023-03-04T11:34:25.212Z,21.90
2023-03-04T11:37:00.107Z,23.90
2023-03-04T11:39:40.296Z,22.10
2023-03-04T11:42:25.226Z,22.70
2023-03-04T11:44:53.697Z,20.20
2023-03-04T11:47:40.735Z,20.10
2023-03-04T11:50:29.040Z,21.70
2023-03-04T11:53:09.224Z,27.30
2023-03-04T11:55:45.950Z,20.20
2023-03-04T11:58:40.270Z,25.40
2023-03-04T12:01:10.524Z,22.90
2023-03-04T12:03:52.773Z,23.20
2023-03-04T12:06:43.207Z,20.70
2023-03-04T12:09:32.584Z,21.10
2023-03-04T12:12:09.739Z,31.50
2023-03-04T12:14:49.010Z,43.70
2023-03-04T12:17:30.678Z,39.00
2023-03-04T12:20:19.748Z,41.10
2023-03-04T12:22:52.581Z,44.50
2023-03-04T12:25:30.413Z,42.40
2023-03-04T12:27:58.673Z,42.70
2023-03-04T12:30:35.094Z,43.40
2023-03-04T12:33:19.399Z,44.00
2023-03-04T12:36:19.675Z,43.40
2023-03-04T12:39:06.146Z,46.00
2023-03-04T12:42:12.174Z,40.60
2023-03-04T12:44:46.028Z,45.80
2023-03-04T12:47:45.132Z,44.20
2023-03-04T12:50:44.418Z,41.40
2023-03-04T12:53:29.948Z,44.60
2023-03-04T12:55:58.249Z,40.90
2023-03-04T12:58:28.690Z,44.20
2023-03-04T13:01:06.403Z,45.10
2023-03-04T13:03:58.331Z,46.90
2023-03-04T13:06:43.649Z,50.40
2023-03-04T13:09:15.765Z,44.30
2023-03-04T13:12:02.300Z,44.60
2023-03-04T13:14:31.932Z,42.00
2023-03-04T13:17:19.795Z,41.20
2023-03-04T13:19:57.671Z,45.20
2023-03-04T13:22:38.337Z,39.10
2023-03-04T13:25:29.020Z,40.20
2023-03-04T13:28:18.703Z,41.00
2023-03-04T13:30:55.740Z,54.70
2023-03-04T13:33:24.342Z,43.60
2023-03-04T13:36:05.167Z,42.50
2023-03-04T13:38:36.379Z,43.20
2023-03-04T13:41:11.419Z,40.60
2023-03-04T13:43:43.101Z,43.80
2023-03-04T13:48:52.001Z,44.40
2023-03-04T13:51:41.355Z,42.00
2023-03-04T13:54:15.741Z,42.60
2023-03-04T13:57:07.497Z,38.50
2023-03-04T13:59:56.304Z,43.80
2023-03-04T14:02:26.263Z,42.90
2023-03-04T14:04:54.188Z,39.70
2023-03-04T14:07:26.499Z,57.20
2023-03-04T14:10:12.709Z,47.30
2023-03-04T14:12:51.898Z,59.80
2023-03-04T14:15:28.997Z,47.20
2023-03-04T14:18:02.498Z,48.40
2023-03-04T14:20:31.060Z,44.70
2023-03-04T14:23:25.948Z,50.90
2023-03-04T14:26:06.984Z,51.20
2023-03-04T14:28:46.968Z,48.70
2023-03-04T14:31:19.610Z,47.40
2023-03-04T14:33:50.201Z,47.30
2023-03-04T14:36:21.270Z,55.70
2023-03-04T14:38:54.677Z,51.70
2023-03-04T14:41:26.518Z,51.20
2023-03-04T14:54:32.127Z,49.20
2023-03-04T14:57:18.564Z,52.90
2023-03-04T14:59:47.616Z,54.40
2023-03-04T15:02:31.427Z,51.30
2023-03-04T15:05:16.549Z,49.70
2023-03-04T15:07:59.268Z,51.40
2023-03-04T15:10:29.852Z,54.80
2023-03-04T15:13:02.305Z,56.80
2023-03-04T15:15:38.415Z,52.60
2023-03-04T15:18:27.380Z,52.70
2023-03-04T15:21:17.259Z,58.50
2023-03-04T15:23:45.745Z,60.90
2023-03-04T15:26:14.049Z,56.80
2023-03-04T15:28:43.468Z,55.50
2023-03-04T15:31:19.696Z,55.50
2023-03-04T15:33:48.100Z,59.40
2023-03-04T15:36:17.977Z,56.60
2023-03-04T15:38:50.426Z,64.30
2023-03-04T15:41:25.819Z,62.40
2023-03-04T15:43:54.953Z,61.90
2023-03-04T15:46:23.429Z,61.80
2023-03-04T15:48:52.366Z,59.50
2023-03-04T15:59:05.080Z,61.00
2023-03-04T16:01:34.416Z,61.60
2023-03-04T16:04:02.576Z,64.90
2023-03-04T16:06:31.814Z,72.40
2023-03-04T16:09:01.392Z,65.30
2023-03-04T16:11:30.427Z,62.80
2023-03-04T16:13:58.845Z,63.80
2023-03-04T16:16:27.803Z,62.70
2023-03-04T16:18:56.514Z,65.60
2023-03-04T16:21:25.870Z,56.20
2023-03-04T16:23:54.820Z,58.90
2023-03-04T16:26:24.461Z,66.40
2023-03-04T16:28:53.052Z,60.30
2023-03-04T16:31:21.878Z,54.90
2023-03-04T16:33:50.318Z,57.80
2023-03-04T16:36:23.802Z,63.90
2023-03-04T16:38:55.110Z,60.60
2023-03-04T16:41:26.085Z,60.40
2023-03-04T16:43:56.735Z,60.70
2023-03-04T16:46:32.076Z,58.40
2023-03-04T16:49:00.205Z,57.90
2023-03-04T16:51:35.481Z,56.20
2023-03-04T16:54:03.553Z,59.60
2023-03-04T16:56:32.378Z,57.80
2023-03-04T16:59:00.511Z,57.00
2023-03-04T17:01:29.375Z,58.50
2023-03-04T17:03:57.633Z,55.80
2023-03-04T17:06:25.811Z,59.50
2023-03-04T17:08:54.618Z,56.00
2023-03-04T17:11:27.702Z,53.80
2023-03-04T17:13:57.577Z,53.10
2023-03-04T17:16:26.298Z,50.50
2023-03-04T17:18:57.475Z,47.00
2023-03-04T17:21:26.907Z,51.40
2023-03-04T17:23:55.277Z,48.10
2023-03-04T17:26:24.222Z,47.20
2023-03-04T17:28:52.295Z,45.40
2023-03-04T17:31:20.743Z,43.90
2023-03-04T17:33:49.847Z,44.50
2023-03-04T17:36:18.951Z,43.90
2023-03-04T17:38:49.406Z,40.10
2023-03-04T17:44:14.686Z,36.40
2023-03-04T17:46:43.291Z,32.10
2023-03-04T17:49:11.664Z,38.60
2023-03-04T17:51:42.740Z,33.80
2023-03-04T17:54:11.184Z,32.30
2023-03-04T17:56:40.619Z,29.10
2023-03-04T17:59:12.575Z,30.70
2023-03-04T18:01:40.948Z,33.10
2023-03-04T18:04:09.013Z,32.90
2023-03-04T18:06:37.949Z,32.20
2023-03-04T18:09:06.350Z,29.90
2023-03-04T18:11:37.305Z,30.70
2023-03-04T18:14:05.611Z,29.00
2023-03-04T18:16:33.617Z,31.10
2023-03-04T18:19:02.969Z,31.30
2023-03-04T18:21:35.648Z,31.00
2023-03-04T18:24:04.474Z,32.00
2023-03-04T18:26:32.811Z,29.00
2023-03-04T18:29:02.426Z,27.10
2023-03-04T18:31:33.985Z,26.00
2023-03-04T18:34:03.906Z,30.30
2023-03-04T18:36:33.233Z,28.10
2023-03-04T18:39:04.598Z,26.20
2023-03-04T18:41:33.816Z,30.40
2023-03-04T18:44:04.364Z,26.50
2023-03-04T18:46:42.644Z,24.40
2023-03-04T18:49:10.785Z,23.80
2023-03-04T18:51:39.236Z,25.10
2023-03-04T18:54:08.240Z,23.90
2023-03-04T18:56:44.894Z,23.00
2023-03-04T18:59:20.334Z,23.90
2023-03-04T19:01:48.373Z,21.00
2023-03-04T19:04:16.909Z,23.40
2023-03-04T19:06:45.438Z,21.10
2023-03-04T19:09:14.868Z,22.30
2023-03-04T19:11:43.371Z,20.50
2023-03-04T19:14:14.019Z,16.80
2023-03-04T19:16:42.817Z,16.20
2023-03-04T19:19:10.920Z,16.20
2023-03-04T19:21:40.461Z,14.70
2023-03-04T19:24:08.772Z,14.30
2023-03-04T19:26:40.262Z,12.10
2023-03-04T19:29:08.670Z,11.10
2023-03-04T19:31:40.982Z,11.40
2023-03-04T19:34:09.909Z,11.30
2023-03-04T19:36:38.600Z,11.70
2023-03-04T19:39:08.997Z,12.50
2023-03-04T19:41:37.198Z,10.50
2023-03-04T19:44:05.399Z,10.40
2023-03-04T19:54:13.610Z,10.20
2023-03-04T19:56:42.120Z,14.60
2023-03-04T19:59:11.053Z,10.20
2023-03-04T20:01:40.744Z,10.20
2023-03-04T20:04:11.189Z,9.90
2023-03-04T20:06:41.788Z,9.10
2023-03-04T20:09:10.286Z,7.40
2023-03-04T20:12:25.191Z,7.00
2023-03-04T20:14:55.832Z,8.20
2023-03-04T20:17:23.768Z,10.10
2023-03-04T20:19:52.359Z,7.20
2023-03-04T20:22:20.561Z,7.10
2023-03-04T20:24:49.468Z,7.90
2023-03-04T20:27:18.166Z,8.30
2023-03-04T20:29:48.982Z,9.90
2023-03-04T20:32:18.387Z,8.30
2023-03-04T20:34:49.513Z,6.70
2023-03-04T20:37:17.888Z,6.40
2023-03-04T20:39:46.830Z,7.90
2023-03-04T20:42:15.625Z,7.20
2023-03-04T20:44:43.814Z,7.60
2023-03-04T20:47:11.994Z,13.40
2023-03-04T20:49:40.183Z,7.70
2023-03-04T20:52:09.118Z,8.30
2023-03-04T20:54:38.478Z,6.20
2023-03-04T20:57:08.100Z,7.20
2023-03-04T20:59:38.011Z,7.00
2023-03-04T21:02:14.477Z,5.50
2023-03-04T21:04:44.044Z,7.70
2023-03-04T21:07:12.817Z,6.70
2023-03-04T21:09:41.950Z,7.80
2023-03-04T21:12:10.814Z,7.40
2023-03-04T21:14:45.594Z,9.40
2023-03-04T21:17:13.971Z,6.60
2023-03-04T21:19:43.509Z,10.10
2023-03-04T21:22:16.467Z,6.50
2023-03-04T21:24:45.159Z,6.10
2023-03-04T21:27:15.080Z,7.00
2023-03-04T21:29:44.407Z,6.30
2023-03-04T21:32:23.753Z,7.90
2023-03-04T21:34:54.082Z,6.10
2023-03-04T21:37:23.942Z,6.50
2023-03-04T21:39:55.070Z,6.00
2023-03-04T21:42:23.518Z,7.30
2023-03-04T21:44:52.440Z,7.30
2023-03-04T21:47:21.256Z,7.30
2023-03-04T21:49:49.834Z,6.30
2023-03-04T21:52:18.966Z,7.10
2023-03-04T21:54:47.961Z,6.30
2023-03-04T21:57:19.248Z,8.40
2023-03-04T21:59:48.535Z,7.20
2023-03-04T22:02:18.656Z,6.60
2023-03-04T22:04:48.301Z,7.10
2023-03-04T22:07:16.894Z,8.80
2023-03-04T22:09:47.275Z,11.60
2023-03-04T22:12:18.196Z,7.60
2023-03-04T22:17:15.696Z,9.30
2023-03-04T22:19:44.663Z,8.70
2023-03-04T22:22:13.262Z,10.20
2023-03-04T22:24:42.567Z,10.80
2023-03-04T22:27:11.320Z,10.30
2023-03-04T22:29:41.359Z,10.30
2023-03-04T22:32:10.410Z,14.30
2023-03-04T22:34:39.093Z,17.40
2023-03-04T22:37:07.302Z,15.90
2023-03-04T22:39:35.503Z,18.10
2023-03-04T22:42:04.030Z,16.70
2023-03-04T22:44:33.939Z,21.20
2023-03-04T22:47:02.139Z,20.10
2023-03-04T22:49:30.637Z,19.20
2023-03-04T22:52:00.568Z,20.50
2023-03-04T22:54:29.730Z,20.80
2023-03-04T22:56:57.974Z,20.20
2023-03-04T22:59:26.171Z,17.00
2023-03-04T23:01:57.678Z,20.90
2023-03-04T23:04:26.465Z,17.50
2023-03-04T23:06:54.729Z,17.20
2023-03-04T23:09:23.622Z,20.60
2023-03-04T23:11:52.028Z,19.30
2023-03-04T23:14:20.142Z,21.00
2023-03-04T23:16:49.278Z,17.70
2023-03-04T23:19:17.929Z,18.80
2023-03-04T23:21:46.334Z,18.90
2023-03-04T23:24:14.990Z,18.60
2023-03-04T23:26:43.395Z,17.10
2023-03-04T23:29:13.412Z,20.00
2023-03-04T23:31:42.751Z,17.40
2023-03-04T23:34:12.771Z,18.80
2023-03-04T23:36:42.089Z,18.20
2023-03-04T23:39:11.314Z,15.30
2023-03-04T23:41:41.555Z,16.30
2023-03-04T23:44:10.990Z,17.60
2023-03-04T23:46:42.860Z,12.90
2023-03-04T23:49:12.729Z,13.70
2023-03-04T23:51:41.040Z,14.50
2023-03-04T23:54:09.609Z,14.90
2023-03-04T23:56:37.889Z,19.40
2023-03-04T23:59:11.952Z,17.40
